sensor_id;sensor_type;location;lat;lon;timestamp;temperature;humidity
49503;DHT22;35409;48.776;9.204;2023-03-31T00:01:28;11.50;99.90
49503;DHT22;35409;48.776;9.204;2023-03-31T00:03:54;11.50;99.90
49503;DHT22;35409;48.776;9.204;2023-03-31T00:06:27;11.50;99.90
49503;DHT22;35409;48.776;9.204;2023-03-31T00:08:53;11.50;99.90
49503;DHT22;35409;48.776;9.204;2023-03-31T00:11:26;11.50;99.90
49503;DHT22;35409;48.776;9.204;2023-03-31T00:13:52;11.50;99.90
49503;DHT22;35409;48.776;9.204;2023-03-31T00:16:18;11.40;99.90
49503;DHT22;35409;48.776;9.204;2023-03-31T00:18:44;11.40;99.90
49503;DHT22;35409;48.776;9.204;2023-03-31T00:21:17;11.40;99.90
49503;DHT22;35409;48.776;9.204;2023-03-31T00:23:51;11.40;99.90
49503;DHT22;35409;48.776;9.204;2023-03-31T00:26:17;11.40;99.90
49503;DHT22;35409;48.776;9.204;2023-03-31T00:28:46;11.50;99.90
49503;DHT22;35409;48.776;9.204;2023-03-31T00:31:11;11.50;99.90
49503;DHT22;35409;48.776;9.204;2023-03-31T00:33:37;11.50;99.90
49503;DHT22;35409;48.776;9.204;2023-03-31T00:36:02;11.60;99.90
49503;DHT22;35409;48.776;9.204;2023-03-31T00:38:31;11.60;99.90
49503;DHT22;35409;48.776;9.204;2023-03-31T00:40:58;11.60;99.90
49503;DHT22;35409;48.776;9.204;2023-03-31T00:46:19;11.70;99.90
49503;DHT22;35409;48.776;9.204;2023-03-31T00:48:54;11.70;99.90
49503;DHT22;35409;48.776;9.204;2023-03-31T00:51:28;11.60;99.90
49503;DHT22;35409;48.776;9.204;2023-03-31T00:53:56;11.70;99.90
49503;DHT22;35409;48.776;9.204;2023-03-31T00:56:25;11.70;99.90
49503;DHT22;35409;48.776;9.204;2023-03-31T00:58:56;11.80;99.90
49503;DHT22;35409;48.776;9.204;2023-03-31T01:01:24;11.80;99.90
49503;DHT22;35409;48.776;9.204;2023-03-31T01:03:51;12.00;99.90
49503;DHT22;35409;48.776;9.204;2023-03-31T01:06:17;11.90;99.90
49503;DHT22;35409;48.776;9.204;2023-03-31T01:08:49;11.90;99.90
49503;DHT22;35409;48.776;9.204;2023-03-31T01:11:18;11.90;99.90
49503;DHT22;35409;48.776;9.204;2023-03-31T01:13:44;11.90;99.90
49503;DHT22;35409;48.776;9.204;2023-03-31T01:16:14;12.00;99.90
49503;DHT22;35409;48.776;9.204;2023-03-31T01:18:40;12.00;99.90
49503;DHT22;35409;48.776;9.204;2023-03-31T01:27:14;12.00;99.90
49503;DHT22;35409;48.776;9.204;2023-03-31T01:29:57;12.00;99.90
49503;DHT22;35409;48.776;9.204;2023-03-31T01:43:44;12.00;99.90
49503;DHT22;35409;48.776;9.204;2023-03-31T01:46:36;12.20;99.90
49503;DHT22;35409;48.776;9.204;2023-03-31T01:52:10;12.20;99.90
49503;DHT22;35409;48.776;9.204;2023-03-31T01:54:47;12.30;99.90
49503;DHT22;35409;48.776;9.204;2023-03-31T01:57:27;12.30;99.90
49503;DHT22;35409;48.776;9.204;2023-03-31T02:00:04;12.20;99.90
49503;DHT22;35409;48.776;9.204;2023-03-31T02:02:44;12.10;99.90
49503;DHT22;35409;48.776;9.204;2023-03-31T02:05:16;12.00;99.90
49503;DHT22;35409;48.776;9.204;2023-03-31T02:07:51;12.00;99.90
49503;DHT22;35409;48.776;9.204;2023-03-31T02:10:19;11.90;99.90
49503;DHT22;35409;48.776;9.204;2023-03-31T02:12:47;11.80;99.90
49503;DHT22;35409;48.776;9.204;2023-03-31T02:15:20;11.70;99.90
49503;DHT22;35409;48.776;9.204;2023-03-31T02:17:50;11.60;99.90
49503;DHT22;35409;48.776;9.204;2023-03-31T02:20:20;11.50;99.90
49503;DHT22;35409;48.776;9.204;2023-03-31T02:22:49;11.50;99.90
49503;DHT22;35409;48.776;9.204;2023-03-31T02:25:22;11.50;99.90
49503;DHT22;35409;48.776;9.204;2023-03-31T02:27:53;11.40;99.90
49503;DHT22;35409;48.776;9.204;2023-03-31T02:30:20;11.40;99.90
49503;DHT22;35409;48.776;9.204;2023-03-31T02:32:46;11.30;99.90
49503;DHT22;35409;48.776;9.204;2023-03-31T02:35:15;11.20;99.90
49503;DHT22;35409;48.776;9.204;2023-03-31T02:37:42;11.10;99.90
49503;DHT22;35409;48.776;9.204;2023-03-31T02:40:16;11.00;99.90
49503;DHT22;35409;48.776;9.204;2023-03-31T02:42:42;10.90;99.90
49503;DHT22;35409;48.776;9.204;2023-03-31T02:48:20;10.90;99.90
49503;DHT22;35409;48.776;9.204;2023-03-31T02:56:21;10.80;99.90
49503;DHT22;35409;48.776;9.204;2023-03-31T03:04:10;10.70;99.90
49503;DHT22;35409;48.776;9.204;2023-03-31T03:12:24;10.70;99.90
49503;DHT22;35409;48.776;9.204;2023-03-31T03:15:10;10.70;99.90
49503;DHT22;35409;48.776;9.204;2023-03-31T03:20:06;10.60;99.90
49503;DHT22;35409;48.776;9.204;2023-03-31T03:22:37;10.60;99.90
49503;DHT22;35409;48.776;9.204;2023-03-31T03:25:08;10.50;99.90
49503;DHT22;35409;48.776;9.204;2023-03-31T06:01:48;8.90;99.90
49503;DHT22;35409;48.776;9.204;2023-03-31T06:04:14;8.80;99.90
49503;DHT22;35409;48.776;9.204;2023-03-31T06:06:39;8.70;99.90
49503;DHT22;35409;48.776;9.204;2023-03-31T06:09:07;8.60;99.90
49503;DHT22;35409;48.776;9.204;2023-03-31T06:11:33;8.60;99.90
49503;DHT22;35409;48.776;9.204;2023-03-31T06:13:59;8.60;99.90
49503;DHT22;35409;48.776;9.204;2023-03-31T06:16:24;8.60;99.90
49503;DHT22;35409;48.776;9.204;2023-03-31T06:18:50;8.60;99.90
49503;DHT22;35409;48.776;9.204;2023-03-31T06:21:18;8.60;99.90
49503;DHT22;35409;48.776;9.204;2023-03-31T06:23:45;8.60;99.90
49503;DHT22;35409;48.776;9.204;2023-03-31T06:26:12;8.60;99.90
49503;DHT22;35409;48.776;9.204;2023-03-31T06:28:38;8.70;99.90
49503;DHT22;35409;48.776;9.204;2023-03-31T06:31:07;8.70;99.90
49503;DHT22;35409;48.776;9.204;2023-03-31T06:33:33;8.70;99.90
49503;DHT22;35409;48.776;9.204;2023-03-31T06:35:59;8.70;99.90
49503;DHT22;35409;48.776;9.204;2023-03-31T06:38:28;8.70;99.90
49503;DHT22;35409;48.776;9.204;2023-03-31T06:40:54;8.70;99.90
49503;DHT22;35409;48.776;9.204;2023-03-31T06:43:19;8.70;99.90
49503;DHT22;35409;48.776;9.204;2023-03-31T06:45:45;8.70;99.90
49503;DHT22;35409;48.776;9.204;2023-03-31T06:48:12;8.70;99.90
49503;DHT22;35409;48.776;9.204;2023-03-31T06:50:38;8.70;99.90
49503;DHT22;35409;48.776;9.204;2023-03-31T06:53:04;8.70;99.90
49503;DHT22;35409;48.776;9.204;2023-03-31T06:55:30;8.70;99.90
49503;DHT22;35409;48.776;9.204;2023-03-31T06:57:58;8.60;99.90
49503;DHT22;35409;48.776;9.204;2023-03-31T07:00:24;8.60;99.90
49503;DHT22;35409;48.776;9.204;2023-03-31T07:02:51;8.60;99.90
49503;DHT22;35409;48.776;9.204;2023-03-31T07:05:17;8.70;99.90
49503;DHT22;35409;48.776;9.204;2023-03-31T07:07:43;8.80;99.90
49503;DHT22;35409;48.776;9.204;2023-03-31T07:10:09;8.80;99.90
49503;DHT22;35409;48.776;9.204;2023-03-31T07:12:35;9.00;99.90
49503;DHT22;35409;48.776;9.204;2023-03-31T07:15:01;9.20;99.90
49503;DHT22;35409;48.776;9.204;2023-03-31T07:17:27;9.30;99.90
49503;DHT22;35409;48.776;9.204;2023-03-31T07:19:52;9.30;99.90
49503;DHT22;35409;48.776;9.204;2023-03-31T07:22:18;9.30;99.90
49503;DHT22;35409;48.776;9.204;2023-03-31T07:24:44;9.30;99.90
49503;DHT22;35409;48.776;9.204;2023-03-31T07:27:09;9.20;99.90
49503;DHT22;35409;48.776;9.204;2023-03-31T07:29:35;9.20;99.90
49503;DHT22;35409;48.776;9.204;2023-03-31T07:32:00;9.30;99.90
49503;DHT22;35409;48.776;9.204;2023-03-31T07:34:26;9.30;99.90
49503;DHT22;35409;48.776;9.204;2023-03-31T07:36:54;9.40;99.90
49503;DHT22;35409;48.776;9.204;2023-03-31T07:39:20;9.50;99.90
49503;DHT22;35409;48.776;9.204;2023-03-31T07:41:46;9.50;99.90
49503;DHT22;35409;48.776;9.204;2023-03-31T07:44:12;9.70;99.90
49503;DHT22;35409;48.776;9.204;2023-03-31T07:46:38;9.70;99.90
49503;DHT22;35409;48.776;9.204;2023-03-31T07:49:04;9.80;99.90
49503;DHT22;35409;48.776;9.204;2023-03-31T07:51:31;9.90;99.90
49503;DHT22;35409;48.776;9.204;2023-03-31T07:53:57;10.00;99.90
49503;DHT22;35409;48.776;9.204;2023-03-31T07:56:24;10.00;99.90
49503;DHT22;35409;48.776;9.204;2023-03-31T07:58:50;10.10;99.90
49503;DHT22;35409;48.776;9.204;2023-03-31T08:01:18;10.30;99.90
49503;DHT22;35409;48.776;9.204;2023-03-31T08:03:46;10.30;99.90
49503;DHT22;35409;48.776;9.204;2023-03-31T08:06:20;10.30;99.90
49503;DHT22;35409;48.776;9.204;2023-03-31T08:08:49;10.30;99.90
49503;DHT22;35409;48.776;9.204;2023-03-31T08:11:16;10.30;99.90
49503;DHT22;35409;48.776;9.204;2023-03-31T08:13:42;10.30;99.90
49503;DHT22;35409;48.776;9.204;2023-03-31T08:16:08;10.40;99.90
49503;DHT22;35409;48.776;9.204;2023-03-31T08:18:33;10.60;99.90
49503;DHT22;35409;48.776;9.204;2023-03-31T08:20:59;10.70;99.90
49503;DHT22;35409;48.776;9.204;2023-03-31T08:23:25;10.80;99.90
49503;DHT22;35409;48.776;9.204;2023-03-31T08:25:51;10.90;99.90
49503;DHT22;35409;48.776;9.204;2023-03-31T08:28:16;11.10;99.90
49503;DHT22;35409;48.776;9.204;2023-03-31T08:30:42;11.10;99.90
49503;DHT22;35409;48.776;9.204;2023-03-31T08:33:08;11.20;99.90
49503;DHT22;35409;48.776;9.204;2023-03-31T08:35:37;11.30;99.90
49503;DHT22;35409;48.776;9.204;2023-03-31T08:38:02;11.50;99.90
49503;DHT22;35409;48.776;9.204;2023-03-31T08:40:30;11.70;99.90
49503;DHT22;35409;48.776;9.204;2023-03-31T08:43:04;11.90;99.90
49503;DHT22;35409;48.776;9.204;2023-03-31T08:45:40;11.90;99.90
49503;DHT22;35409;48.776;9.204;2023-03-31T08:48:26;12.10;99.90
49503;DHT22;35409;48.776;9.204;2023-03-31T08:51:34;12.20;99.90
49503;DHT22;35409;48.776;9.204;2023-03-31T08:56:25;12.60;99.90
49503;DHT22;35409;48.776;9.204;2023-03-31T08:58:52;12.70;99.90
49503;DHT22;35409;48.776;9.204;2023-03-31T09:03:50;13.00;99.90
49503;DHT22;35409;48.776;9.204;2023-03-31T09:06:30;13.10;99.90
49503;DHT22;35409;48.776;9.204;2023-03-31T09:09:01;13.20;99.90
49503;DHT22;35409;48.776;9.204;2023-03-31T09:22:00;13.90;99.90
49503;DHT22;35409;48.776;9.204;2023-03-31T09:24:36;14.00;99.90
49503;DHT22;35409;48.776;9.204;2023-03-31T09:27:09;14.20;99.90
49503;DHT22;35409;48.776;9.204;2023-03-31T09:29:44;14.20;99.90
49503;DHT22;35409;48.776;9.204;2023-03-31T09:32:18;14.50;99.90
49503;DHT22;35409;48.776;9.204;2023-03-31T09:34:45;14.50;99.90
49503;DHT22;35409;48.776;9.204;2023-03-31T09:37:11;14.90;99.90
49503;DHT22;35409;48.776;9.204;2023-03-31T09:39:38;15.10;99.90
49503;DHT22;35409;48.776;9.204;2023-03-31T09:42:04;15.20;99.90
49503;DHT22;35409;48.776;9.204;2023-03-31T09:46:59;15.20;99.90
49503;DHT22;35409;48.776;9.204;2023-03-31T09:49:34;15.00;99.90
49503;DHT22;35409;48.776;9.204;2023-03-31T09:52:08;14.90;99.90
49503;DHT22;35409;48.776;9.204;2023-03-31T09:54:47;14.80;99.90
49503;DHT22;35409;48.776;9.204;2023-03-31T09:57:25;14.90;99.90
49503;DHT22;35409;48.776;9.204;2023-03-31T09:59:51;14.90;99.90
49503;DHT22;35409;48.776;9.204;2023-03-31T10:04:59;15.50;99.90
49503;DHT22;35409;48.776;9.204;2023-03-31T10:07:25;15.10;99.90
49503;DHT22;35409;48.776;9.204;2023-03-31T10:09:52;15.20;99.90
49503;DHT22;35409;48.776;9.204;2023-03-31T10:12:20;15.40;99.90
49503;DHT22;35409;48.776;9.204;2023-03-31T10:14:52;15.30;99.90
49503;DHT22;35409;48.776;9.204;2023-03-31T10:17:23;15.40;99.90
49503;DHT22;35409;48.776;9.204;2023-03-31T10:24:46;15.50;99.90
49503;DHT22;35409;48.776;9.204;2023-03-31T10:27:33;15.70;99.90
49503;DHT22;35409;48.776;9.204;2023-03-31T10:34:57;16.50;99.90
49503;DHT22;35409;48.776;9.204;2023-03-31T10:37:27;16.60;99.90
49503;DHT22;35409;48.776;9.204;2023-03-31T10:40:16;16.60;99.90
49503;DHT22;35409;48.776;9.204;2023-03-31T10:42:46;16.70;99.90
49503;DHT22;35409;48.776;9.204;2023-03-31T10:45:26;16.40;99.90
49503;DHT22;35409;48.776;9.204;2023-03-31T10:47:55;16.40;99.90
49503;DHT22;35409;48.776;9.204;2023-03-31T10:50:27;16.30;99.90
49503;DHT22;35409;48.776;9.204;2023-03-31T10:53:09;16.40;99.90
49503;DHT22;35409;48.776;9.204;2023-03-31T11:41:04;9.60;99.90
49503;DHT22;35409;48.776;9.204;2023-03-31T12:17:01;12.90;99.90
49503;DHT22;35409;48.776;9.204;2023-03-31T12:22:26;13.70;99.90
49503;DHT22;35409;48.776;9.204;2023-03-31T12:24:53;13.70;99.90
49503;DHT22;35409;48.776;9.204;2023-03-31T12:27:55;13.60;99.90
49503;DHT22;35409;48.776;9.204;2023-03-31T12:30:35;13.70;99.90
49503;DHT22;35409;48.776;9.204;2023-03-31T12:33:08;13.80;99.90
49503;DHT22;35409;48.776;9.204;2023-03-31T12:43:30;15.60;99.90
49503;DHT22;35409;48.776;9.204;2023-03-31T12:49:11;16.30;99.90
49503;DHT22;35409;48.776;9.204;2023-03-31T12:52:03;16.70;99.90
49503;DHT22;35409;48.776;9.204;2023-03-31T12:57:38;17.20;98.40
49503;DHT22;35409;48.776;9.204;2023-03-31T13:02:39;17.20;98.30
49503;DHT22;35409;48.776;9.204;2023-03-31T13:08:06;16.30;97.80
49503;DHT22;35409;48.776;9.204;2023-03-31T13:10:33;15.90;98.00
49503;DHT22;35409;48.776;9.204;2023-03-31T13:13:17;15.90;98.80
49503;DHT22;35409;48.776;9.204;2023-03-31T13:15:55;15.80;99.20
49503;DHT22;35409;48.776;9.204;2023-03-31T13:18:22;15.60;98.60
49503;DHT22;35409;48.776;9.204;2023-03-31T13:20:58;15.40;99.60
49503;DHT22;35409;48.776;9.204;2023-03-31T13:23:25;15.00;99.90
49503;DHT22;35409;48.776;9.204;2023-03-31T13:25:56;14.70;99.90
49503;DHT22;35409;48.776;9.204;2023-03-31T13:30:53;13.40;99.90
49503;DHT22;35409;48.776;9.204;2023-03-31T13:33:21;12.60;99.90
49503;DHT22;35409;48.776;9.204;2023-03-31T13:35:54;12.10;99.90
49503;DHT22;35409;48.776;9.204;2023-03-31T13:38:27;11.80;99.90
49503;DHT22;35409;48.776;9.204;2023-03-31T13:41:21;11.60;99.90
49503;DHT22;35409;48.776;9.204;2023-03-31T13:52:00;11.20;99.90
49503;DHT22;35409;48.776;9.204;2023-03-31T14:03:12;10.20;99.90
49503;DHT22;35409;48.776;9.204;2023-03-31T14:10:52;9.50;99.90
49503;DHT22;35409;48.776;9.204;2023-03-31T14:13:19;9.30;99.90
49503;DHT22;35409;48.776;9.204;2023-03-31T14:18:20;9.70;99.90
49503;DHT22;35409;48.776;9.204;2023-03-31T14:37:22;14.10;99.90
49503;DHT22;35409;48.776;9.204;2023-03-31T14:39:50;13.90;99.90
49503;DHT22;35409;48.776;9.204;2023-03-31T14:42:20;13.90;99.90
49503;DHT22;35409;48.776;9.204;2023-03-31T14:44:47;14.20;99.90
49503;DHT22;35409;48.776;9.204;2023-03-31T14:47:30;15.00;99.90
49503;DHT22;35409;48.776;9.204;2023-03-31T18:23:36;9.30;99.90
49503;DHT22;35409;48.776;9.204;2023-03-31T18:26:05;9.10;99.90
